Time;durP1;ratioP1;P1;durP2;ratioP2;P2;SDS_P1;SDS_P2;PMS_P1;PMS_P2;Temp;Humidity;BMP_temperature;BMP_pressure;BME280_temperature;BME280_humidity;BME280_pressure;Samples;Min_cycle;Max_cycle;Signal;HPM_P1;HPM_P2
2022/05/02 00:00:29;;;;;;;156.05;28.23;;;6.10;99.90;;;;;;5010366;28;20053;-79
2022/05/02 00:02:57;;;;;;;131.85;24.75;;;6.00;99.90;;;;;;5027699;28;20053;-80
2022/05/02 00:05:26;;;;;;;28.38;13.43;;;6.00;99.90;;;;;;5027067;28;20480;-81
2022/05/02 00:07:53;;;;;;;20.55;12.95;;;6.10;99.90;;;;;;5025469;28;20049;-80
2022/05/02 00:10:21;;;;;;;89.65;22.30;;;6.20;99.90;;;;;;5026358;28;20761;-81
2022/05/02 00:12:49;;;;;;;54.22;16.13;;;6.00;99.90;;;;;;5028502;28;20562;-81
2022/05/02 00:15:17;;;;;;;19.75;12.00;;;5.60;99.90;;;;;;5006485;28;20098;-81
2022/05/02 00:17:58;;;;;;;72.40;17.25;;;5.40;99.90;;;;;;4989796;28;20464;-81
2022/05/02 00:20:32;;;;;;;60.40;18.67;;;5.50;99.90;;;;;;5008466;28;20050;-81
2022/05/02 00:23:02;;;;;;;57.28;17.98;;;5.50;99.90;;;;;;5005554;28;20831;-81
2022/05/02 00:25:30;;;;;;;20.58;12.32;;;5.60;99.90;;;;;;5007250;28;20139;-81
2022/05/02 00:27:59;;;;;;;22.27;16.15;;;5.70;99.90;;;;;;5006936;28;20057;-80
2022/05/02 00:30:28;;;;;;;23.55;16.17;;;5.70;99.90;;;;;;5007524;28;20046;-81
2022/05/02 00:32:57;;;;;;;20.30;12.38;;;5.80;99.90;;;;;;5007795;28;20413;-80
2022/05/02 00:35:25;;;;;;;36.42;14.85;;;5.90;99.90;;;;;;5007523;28;20081;-80
2022/05/02 00:37:52;;;;;;;22.20;12.27;;;5.60;99.90;;;;;;5006974;28;20480;-80
2022/05/02 00:40:21;;;;;;;18.75;13.45;;;5.50;99.90;;;;;;5008418;28;20054;-80
2022/05/02 00:42:49;;;;;;;17.23;12.27;;;5.40;99.90;;;;;;5006307;28;20045;-80
2022/05/02 00:45:18;;;;;;;17.80;13.30;;;5.50;99.90;;;;;;5007018;28;20049;-81
2022/05/02 00:47:55;;;;;;;20.58;12.88;;;5.70;99.90;;;;;;5007464;28;20054;-80
2022/05/02 00:50:44;;;;;;;22.55;15.85;;;5.80;99.90;;;;;;5012741;28;20052;-81
2022/05/02 00:53:13;;;;;;;16.58;12.98;;;6.00;99.90;;;;;;5027565;28;20041;-81
2022/05/02 00:55:42;;;;;;;24.30;13.65;;;6.00;99.90;;;;;;5027423;28;20053;-81
2022/05/02 00:58:13;;;;;;;23.92;13.48;;;6.10;99.90;;;;;;5026897;28;20045;-81
2022/05/02 01:00:41;;;;;;;30.63;17.67;;;6.10;99.90;;;;;;5027750;28;20060;-81
2022/05/02 01:03:11;;;;;;;15.50;11.38;;;6.20;99.90;;;;;;5026953;28;20053;-81
2022/05/02 01:08:35;;;;;;;22.90;14.25;;;6.20;99.90;;;;;;5027538;28;20046;-80
2022/05/02 01:11:03;;;;;;;15.38;12.27;;;5.80;99.90;;;;;;5027285;28;20064;-80
2022/05/02 01:13:32;;;;;;;15.82;10.80;;;5.70;99.90;;;;;;5021802;28;20060;-80
2022/05/02 01:16:09;;;;;;;145.60;30.10;;;5.60;99.90;;;;;;5007880;28;20065;-80
2022/05/02 01:18:38;;;;;;;38.92;12.18;;;5.40;99.90;;;;;;4992288;28;20046;-81
2022/05/02 01:21:09;;;;;;;23.17;13.48;;;5.30;99.90;;;;;;4999971;28;20049;-80
2022/05/02 01:23:42;;;;;;;16.52;10.70;;;5.20;99.90;;;;;;5006781;28;20053;-81
2022/05/02 01:26:11;;;;;;;17.65;11.63;;;5.30;99.90;;;;;;5007566;28;20038;-81
2022/05/02 01:28:46;;;;;;;23.92;15.10;;;5.30;99.90;;;;;;4989818;28;20065;-81
2022/05/02 01:31:16;;;;;;;25.77;15.27;;;5.50;99.90;;;;;;4989555;28;20042;-81
2022/05/02 01:33:44;;;;;;;17.52;13.10;;;5.60;99.90;;;;;;5007164;28;20071;-81
2022/05/02 01:36:12;;;;;;;22.60;15.40;;;5.70;99.90;;;;;;4989409;28;20045;-81
2022/05/02 01:38:40;;;;;;;22.63;17.05;;;5.70;99.90;;;;;;4989476;28;20060;-81
2022/05/02 01:41:08;;;;;;;20.40;13.43;;;5.80;99.90;;;;;;4990132;28;20049;-81
2022/05/02 01:43:37;;;;;;;59.05;16.83;;;5.70;99.90;;;;;;5009761;28;20428;-81
2022/05/02 01:46:06;;;;;;;73.05;24.30;;;5.70;99.90;;;;;;5010559;28;20050;-81
2022/05/02 01:48:35;;;;;;;19.75;12.80;;;5.50;99.90;;;;;;5011379;28;20084;-80
2022/05/02 01:51:03;;;;;;;53.75;17.15;;;5.50;99.90;;;;;;5010637;28;20048;-81
2022/05/02 01:53:31;;;;;;;78.22;16.23;;;5.20;99.90;;;;;;5010535;28;20065;-81
2022/05/02 01:56:00;;;;;;;62.88;15.98;;;5.00;99.90;;;;;;5008087;28;20046;-81
2022/05/02 01:58:28;;;;;;;17.35;10.68;;;5.00;99.90;;;;;;4990884;28;20050;-81
2022/05/02 02:00:56;;;;;;;19.73;14.25;;;4.90;99.90;;;;;;4991142;28;20046;-81
2022/05/02 02:03:24;;;;;;;21.95;13.68;;;5.20;99.90;;;;;;4991182;28;20054;-81
2022/05/02 02:05:52;;;;;;;20.75;13.05;;;5.40;99.90;;;;;;4991088;28;20057;-81
2022/05/02 02:08:28;;;;;;;24.15;16.67;;;5.60;99.90;;;;;;4991233;28;20047;-81
2022/05/02 02:10:59;;;;;;;15.43;10.57;;;5.70;99.90;;;;;;4991000;28;20069;-81
2022/05/02 02:13:28;;;;;;;15.65;10.55;;;5.80;99.90;;;;;;4996689;28;20046;-81
2022/05/02 02:15:55;;;;;;;33.78;14.40;;;5.60;99.90;;;;;;5009795;28;20735;-81
2022/05/02 02:18:23;;;;;;;51.08;13.45;;;5.30;99.90;;;;;;5010118;28;20071;-81
2022/05/02 02:21:21;;;;;;;20.55;12.07;;;5.10;99.90;;;;;;5010592;28;20048;-81
2022/05/02 02:24:52;;;;;;;50.17;12.93;;;5.00;99.90;;;;;;5008246;28;20049;-81
2022/05/02 02:27:55;;;;;;;60.83;13.63;;;4.90;99.90;;;;;;4994189;28;20053;-81
2022/05/02 02:31:02;;;;;;;21.77;12.40;;;4.90;99.90;;;;;;5006971;28;20118;-81
2022/05/02 02:34:05;;;;;;;17.65;11.55;;;4.80;99.90;;;;;;4990202;28;20038;-81
2022/05/02 02:36:35;;;;;;;11.25;9.30;;;5.00;99.90;;;;;;4988731;28;20060;-81
2022/05/02 02:39:03;;;;;;;21.92;13.20;;;5.10;99.90;;;;;;4991938;28;20049;-81
2022/05/02 02:41:31;;;;;;;18.63;11.00;;;5.20;99.90;;;;;;5009547;28;20057;-81
2022/05/02 02:43:58;;;;;;;278.73;49.67;;;5.30;99.90;;;;;;5010326;28;20065;-81
2022/05/02 02:46:26;;;;;;;97.30;20.60;;;5.00;99.90;;;;;;5009218;28;20050;-81
2022/05/02 02:48:54;;;;;;;23.63;9.45;;;4.90;99.90;;;;;;5008992;28;20046;-81
2022/05/02 02:51:21;;;;;;;16.92;9.60;;;4.80;99.90;;;;;;4996615;28;20613;-81
2022/05/02 02:53:50;;;;;;;21.60;13.63;;;4.60;99.90;;;;;;4989026;28;20053;-81
2022/05/02 02:56:19;;;;;;;82.05;19.40;;;4.70;99.90;;;;;;4989597;28;20042;-81
2022/05/02 02:58:46;;;;;;;16.60;13.63;;;4.80;99.90;;;;;;4988040;28;20046;-81
2022/05/02 03:01:14;;;;;;;18.13;15.00;;;4.90;99.90;;;;;;4989869;28;20042;-81
2022/05/02 03:03:42;;;;;;;19.33;10.70;;;5.00;99.90;;;;;;4989411;28;20081;-81
2022/05/02 03:06:10;;;;;;;16.88;12.63;;;5.10;99.90;;;;;;4988748;28;20050;-81
2022/05/02 03:08:40;;;;;;;15.68;10.02;;;5.10;99.90;;;;;;4989731;28;20054;-81
2022/05/02 03:11:08;;;;;;;42.65;11.57;;;4.90;99.90;;;;;;4989342;28;20042;-81
2022/05/02 03:13:35;;;;;;;77.22;17.88;;;4.80;99.90;;;;;;4995403;28;20066;-80
2022/05/02 03:16:04;;;;;;;51.55;10.80;;;4.60;99.90;;;;;;5009112;28;20050;-81
2022/05/02 03:18:34;;;;;;;75.85;14.93;;;4.60;99.90;;;;;;5008246;28;20057;-81
2022/05/02 03:21:01;;;;;;;20.55;10.27;;;4.60;99.90;;;;;;4997611;28;20054;-81
2022/05/02 03:23:29;;;;;;;144.52;21.50;;;4.60;99.90;;;;;;4971582;28;20418;-81
2022/05/02 03:25:57;;;;;;;94.00;19.13;;;4.50;99.90;;;;;;4988892;28;20505;-81
2022/05/02 03:28:25;;;;;;;120.40;23.83;;;4.60;99.90;;;;;;4989187;28;20085;-81
2022/05/02 03:30:54;;;;;;;151.63;23.42;;;4.70;99.90;;;;;;4989081;28;20054;-81
2022/05/02 03:33:21;;;;;;;84.32;15.68;;;4.50;99.90;;;;;;4989440;28;20565;-81
2022/05/02 03:35:49;;;;;;;78.32;15.20;;;4.60;99.90;;;;;;4988647;28;20047;-81
2022/05/02 03:38:17;;;;;;;26.48;11.45;;;4.70;99.90;;;;;;4989936;28;20053;-81
2022/05/02 03:40:44;;;;;;;33.30;12.13;;;4.60;99.90;;;;;;5008467;28;20058;-81
2022/05/02 03:43:15;;;;;;;32.97;9.45;;;4.50;99.90;;;;;;5008427;28;20511;-81
2022/05/02 03:45:48;;;;;;;21.98;9.15;;;4.50;99.90;;;;;;5007854;28;20056;-81
2022/05/02 03:48:16;;;;;;;55.70;13.55;;;4.60;99.90;;;;;;5008008;28;20397;-81
2022/05/02 03:50:43;;;;;;;10.18;8.30;;;4.60;99.90;;;;;;5000806;28;20062;-81
2022/05/02 03:53:15;;;;;;;20.65;11.60;;;4.60;99.90;;;;;;4974013;28;20482;-81
2022/05/02 03:55:43;;;;;;;19.60;9.45;;;4.70;99.90;;;;;;4988181;28;20061;-81
2022/05/02 03:58:11;;;;;;;29.45;14.88;;;4.80;99.90;;;;;;4986673;28;20520;-81
2022/05/02 04:00:39;;;;;;;22.42;12.40;;;4.70;99.90;;;;;;5004755;28;20045;-81
2022/05/02 04:03:07;;;;;;;50.40;12.60;;;4.80;99.90;;;;;;5007496;28;20061;-81
2022/05/02 04:05:34;;;;;;;13.50;11.45;;;4.80;99.90;;;;;;5007201;28;20061;-81
2022/05/02 04:08:02;;;;;;;59.58;14.50;;;5.00;99.90;;;;;;5007352;28;20050;-81
2022/05/02 04:10:30;;;;;;;40.08;14.13;;;5.00;99.90;;;;;;4990409;28;20398;-81
2022/05/02 04:12:58;;;;;;;21.23;12.13;;;5.00;99.90;;;;;;5008071;28;20061;-81
2022/05/02 04:15:27;;;;;;;55.85;12.38;;;5.10;99.90;;;;;;4989938;28;20046;-81
2022/05/02 04:17:59;;;;;;;49.13;13.27;;;5.20;99.90;;;;;;5006774;28;20049;-81
2022/05/02 04:20:27;;;;;;;15.38;9.68;;;5.20;99.90;;;;;;5007904;28;20409;-81
2022/05/02 04:22:55;;;;;;;13.48;10.35;;;5.20;99.90;;;;;;5006825;28;20497;-81
2022/05/02 04:25:23;;;;;;;39.00;8.10;;;5.30;99.90;;;;;;5005070;28;20045;-81
2022/05/02 04:27:50;;;;;;;23.40;10.57;;;5.30;99.90;;;;;;5005880;28;20046;-81
2022/05/02 04:30:18;;;;;;;17.23;10.10;;;5.40;99.90;;;;;;5007456;28;20046;-81
2022/05/02 04:32:46;;;;;;;34.60;12.18;;;5.30;99.90;;;;;;5017448;28;20053;-81
2022/05/02 04:35:13;;;;;;;21.33;11.40;;;5.40;99.90;;;;;;4994085;28;20053;-81
2022/05/02 04:37:41;;;;;;;23.85;10.45;;;5.40;99.90;;;;;;5004858;28;20054;-81
2022/05/02 04:40:10;;;;;;;106.45;15.20;;;5.40;99.90;;;;;;4999306;28;20379;-81
2022/05/02 04:42:38;;;;;;;31.67;13.27;;;5.40;99.90;;;;;;4990416;28;20050;-81
2022/05/02 04:45:07;;;;;;;9.35;6.80;;;5.50;99.90;;;;;;5007916;28;20053;-81
2022/05/02 04:47:35;;;;;;;13.13;10.07;;;5.50;99.90;;;;;;4986829;28;20501;-81
2022/05/02 04:50:04;;;;;;;16.10;11.07;;;5.60;99.90;;;;;;4998617;28;20041;-81
2022/05/02 04:52:32;;;;;;;13.15;10.85;;;5.70;99.90;;;;;;4983097;28;20053;-81
2022/05/02 04:55:00;;;;;;;12.32;10.02;;;5.70;99.90;;;;;;5003237;28;20065;-82
2022/05/02 04:57:28;;;;;;;11.52;7.63;;;5.70;99.90;;;;;;5003736;28;20049;-82
2022/05/02 04:59:55;;;;;;;13.70;9.38;;;5.90;99.90;;;;;;4988392;28;20058;-81
2022/05/02 05:02:23;;;;;;;13.52;10.23;;;5.90;99.90;;;;;;4987745;28;20038;-82
2022/05/02 05:04:53;;;;;;;13.07;11.70;;;6.00;99.90;;;;;;4997828;28;20042;-82
2022/05/02 05:07:21;;;;;;;12.75;9.48;;;6.10;99.90;;;;;;4986134;28;20053;-81
2022/05/02 05:09:49;;;;;;;12.05;10.18;;;6.20;99.90;;;;;;4986841;28;20050;-82
2022/05/02 05:12:19;;;;;;;18.00;11.80;;;6.20;99.90;;;;;;4987588;28;20046;-82
2022/05/02 05:17:59;;;;;;;17.90;12.15;;;6.50;99.90;;;;;;5006925;28;20049;-82
2022/05/02 05:20:53;;;;;;;13.88;10.10;;;6.80;99.90;;;;;;4977233;28;20061;-82
2022/05/02 05:23:54;;;;;;;9.73;8.48;;;6.90;99.90;;;;;;4955554;28;20058;-81
2022/05/02 05:27:00;;;;;;;15.20;8.75;;;7.00;99.90;;;;;;4959307;28;20050;-80
2022/05/02 05:30:11;;;;;;;10.63;8.63;;;7.00;99.90;;;;;;4984936;28;20061;-83
2022/05/02 05:32:49;;;;;;;20.70;12.13;;;7.10;99.90;;;;;;4921557;28;20050;-82
2022/05/02 05:36:15;;;;;;;14.23;9.45;;;7.10;99.90;;;;;;4965170;28;20035;-81
2022/05/02 05:38:57;;;;;;;11.93;10.38;;;7.20;99.90;;;;;;4927881;29;20889;-81
2022/05/02 05:41:32;;;;;;;10.52;9.50;;;7.50;99.90;;;;;;4917792;28;20051;-81
2022/05/02 05:44:35;;;;;;;12.93;9.40;;;7.70;99.90;;;;;;4956296;28;20054;-82
2022/05/02 05:47:09;;;;;;;11.73;7.75;;;7.70;99.90;;;;;;4961708;28;20062;-81
2022/05/02 05:50:03;;;;;;;9.05;7.63;;;7.80;99.90;;;;;;4936196;28;20552;-81
2022/05/02 05:53:01;;;;;;;9.23;7.80;;;7.80;99.90;;;;;;4961021;28;20082;-81
2022/05/02 05:55:30;;;;;;;9.73;7.85;;;7.80;99.90;;;;;;4955331;28;20717;-81
2022/05/02 05:58:25;;;;;;;9.13;7.13;;;7.80;99.90;;;;;;4986104;28;20122;-81
2022/05/02 06:01:10;;;;;;;38.20;11.45;;;7.70;99.90;;;;;;4938689;28;20046;-81
2022/05/02 06:04:00;;;;;;;18.70;10.93;;;7.90;99.90;;;;;;4938960;28;20046;-81
2022/05/02 06:06:29;;;;;;;19.73;9.75;;;8.20;99.90;;;;;;4970489;28;20050;-81
2022/05/02 06:09:00;;;;;;;28.42;11.07;;;8.30;99.90;;;;;;4955023;28;20611;-81
2022/05/02 06:11:29;;;;;;;;;;;8.20;99.90;;;;;;4971369;28;20043;-81
2022/05/02 06:14:02;;;;;;;25.10;9.43;;;8.00;99.90;;;;;;4961521;28;19929;-81
2022/05/02 06:19:25;;;;;;;17.88;9.43;;;8.00;99.90;;;;;;4990351;28;20050;-81
2022/05/02 06:21:54;;;;;;;41.97;9.18;;;7.90;99.90;;;;;;4998060;28;20045;-81
2022/05/02 06:24:27;;;;;;;16.58;9.40;;;7.90;99.90;;;;;;4994375;28;20064;-82
2022/05/02 06:26:56;;;;;;;19.20;9.15;;;7.70;99.90;;;;;;5010013;28;20056;-82
2022/05/02 06:29:25;;;;;;;29.33;9.15;;;7.60;99.90;;;;;;4978810;28;20151;-82
2022/05/02 06:31:55;;;;;;;27.17;11.15;;;7.50;99.90;;;;;;4981536;28;20057;-82
2022/05/02 06:34:26;;;;;;;30.45;12.52;;;7.50;99.90;;;;;;4973902;28;20559;-82
2022/05/02 06:37:12;;;;;;;71.13;17.85;;;7.50;99.90;;;;;;4971838;28;20046;-82
2022/05/02 06:39:45;;;;;;;137.40;24.27;;;7.50;99.90;;;;;;4973688;28;20050;-82
2022/05/02 06:42:19;;;;;;;71.05;13.93;;;7.40;99.90;;;;;;4995965;28;20221;-82
2022/05/02 06:44:56;;;;;;;68.18;16.20;;;7.40;99.90;;;;;;4990704;28;20056;-82
2022/05/02 06:47:45;;;;;;;59.58;16.45;;;7.50;99.90;;;;;;5008789;28;20096;-82
2022/05/02 06:50:18;;;;;;;150.17;21.67;;;7.50;99.90;;;;;;4977222;28;20037;-82
2022/05/02 06:53:21;;;;;;;87.97;19.88;;;7.70;99.90;;;;;;4992541;28;20049;-82
2022/05/02 06:56:09;;;;;;;108.15;20.40;;;7.70;99.90;;;;;;4993187;28;20060;-82
2022/05/02 06:58:51;;;;;;;52.55;14.23;;;7.80;99.90;;;;;;5008643;28;20067;-82
2022/05/02 07:01:50;;;;;;;27.70;11.00;;;7.90;99.90;;;;;;5009538;28;20052;-82
2022/05/02 07:04:56;;;;;;;15.95;11.18;;;8.20;99.90;;;;;;4957169;28;20097;-82
2022/05/02 07:07:46;;;;;;;12.40;9.38;;;8.60;99.90;;;;;;4990263;28;20049;-82
2022/05/02 07:10:26;;;;;;;16.70;11.82;;;8.90;99.90;;;;;;5010842;28;20049;-83
2022/05/02 07:13:26;;;;;;;23.13;13.20;;;9.10;99.90;;;;;;4995477;28;20058;-83
2022/05/02 07:15:56;;;;;;;15.38;11.50;;;9.10;99.90;;;;;;5010200;28;20459;-83
2022/05/02 07:19:07;;;;;;;18.73;12.70;;;9.00;99.90;;;;;;5016117;28;20045;-83
2022/05/02 07:21:51;;;;;;;16.92;15.13;;;9.40;99.90;;;;;;5024286;28;20057;-82
2022/05/02 07:24:49;;;;;;;20.02;13.05;;;10.20;99.90;;;;;;4985829;28;20061;-83
2022/05/02 07:27:39;;;;;;;21.58;15.30;;;11.40;99.90;;;;;;4990659;28;20416;-82
2022/05/02 07:30:09;;;;;;;19.48;13.43;;;12.60;99.90;;;;;;5020355;28;20053;-83
2022/05/02 07:32:37;;;;;;;25.70;16.30;;;13.00;99.90;;;;;;4994115;28;20056;-82
2022/05/02 07:35:07;;;;;;;20.88;12.88;;;13.10;99.90;;;;;;5013313;28;20063;-83
2022/05/02 07:37:36;;;;;;;19.77;14.60;;;12.40;99.90;;;;;;5042827;28;20049;-82
2022/05/02 07:40:08;;;;;;;16.95;13.55;;;12.10;99.90;;;;;;5009764;28;20053;-83
2022/05/02 07:42:40;;;;;;;17.15;15.10;;;12.70;99.90;;;;;;5028493;28;20057;-82
2022/05/02 07:45:10;;;;;;;24.85;16.60;;;12.80;99.90;;;;;;5025856;28;20055;-82
2022/05/02 07:47:42;;;;;;;20.20;14.00;;;12.70;99.90;;;;;;5009642;28;20389;-82
2022/05/02 07:50:12;;;;;;;;;;;12.50;99.90;;;;;;5027698;28;20037;-82
2022/05/02 07:52:42;;;;;;;16.33;13.00;;;12.60;99.90;;;;;;5023852;28;19928;-83
2022/05/02 07:55:13;;;;;;;26.80;17.25;;;12.50;99.90;;;;;;5023187;28;20046;-83
2022/05/02 07:57:42;;;;;;;16.30;11.63;;;12.20;99.90;;;;;;5022342;28;20138;-83
2022/05/02 08:00:12;;;;;;;17.77;12.73;;;12.00;99.90;;;;;;5033685;28;20048;-83
2022/05/02 08:02:41;;;;;;;21.90;15.02;;;11.90;99.90;;;;;;5029732;28;20411;-83
2022/05/02 08:05:10;;;;;;;16.85;12.70;;;11.70;99.90;;;;;;5030182;28;20060;-83
2022/05/02 08:07:41;;;;;;;20.05;14.32;;;11.50;99.90;;;;;;5010990;28;20052;-82
2022/05/02 08:10:35;;;;;;;22.17;15.10;;;11.50;99.90;;;;;;5013024;28;20041;-83
2022/05/02 08:13:38;;;;;;;21.98;15.20;;;11.60;99.90;;;;;;5015616;28;20056;-82
2022/05/02 08:16:09;;;;;;;;;;;11.70;99.90;;;;;;4973378;28;20045;-82
2022/05/02 08:19:00;;;;;;;23.75;18.05;;;11.80;99.90;;;;;;4995204;28;20642;-82
2022/05/02 08:21:33;;;;;;;;;;;12.00;99.90;;;;;;5009666;28;20488;-82
2022/05/02 08:27:15;;;;;;;19.10;12.38;;;12.70;99.90;;;;;;5000124;28;20845;-83
2022/05/02 08:29:56;;;;;;;19.40;15.43;;;12.60;99.90;;;;;;5020780;28;20052;-83
2022/05/02 08:32:49;;;;;;;25.70;17.35;;;12.20;99.90;;;;;;5041010;28;20049;-83
2022/05/02 08:35:19;;;;;;;19.90;15.98;;;12.40;99.90;;;;;;5010681;28;20431;-83
2022/05/02 08:38:24;;;;;;;19.55;14.63;;;12.60;99.90;;;;;;4991411;28;20045;-82
2022/05/02 08:41:37;;;;;;;17.00;15.32;;;12.60;99.90;;;;;;5004703;28;20057;-88
2022/05/02 08:44:14;;;;;;;20.48;16.77;;;12.90;99.90;;;;;;4984246;28;20508;-85
2022/05/02 08:46:55;;;;;;;20.30;14.50;;;13.10;99.90;;;;;;5000724;28;20054;-85
2022/05/02 08:50:00;;;;;;;20.47;14.27;;;13.20;99.90;;;;;;5020570;28;20045;-86
2022/05/02 08:53:09;;;;;;;16.67;13.70;;;13.40;99.90;;;;;;4987246;28;20068;-85
2022/05/02 08:56:27;;;;;;;17.30;12.88;;;13.50;99.90;;;;;;5004486;28;20050;-87
2022/05/02 08:59:28;;;;;;;14.57;12.20;;;13.60;99.90;;;;;;5005203;28;20045;-85
2022/05/02 09:02:55;;;;;;;18.30;12.23;;;13.70;99.90;;;;;;5008332;28;20057;-85
2022/05/02 09:05:47;;;;;;;18.33;14.48;;;13.80;99.90;;;;;;4987036;28;20061;-84
2022/05/02 09:08:36;;;;;;;18.67;13.23;;;13.90;99.90;;;;;;5033390;28;20052;-83
2022/05/02 09:11:12;;;;;;;14.70;11.55;;;13.80;99.90;;;;;;5033869;28;20044;-86
2022/05/02 09:14:08;;;;;;;20.38;15.32;;;13.70;99.90;;;;;;5003000;28;20080;-84
2022/05/02 09:17:15;;;;;;;15.75;11.93;;;13.60;99.90;;;;;;5018061;28;20069;-85
2022/05/02 09:20:10;;;;;;;15.75;12.23;;;13.50;99.90;;;;;;5017467;28;20053;-85
2022/05/02 09:22:48;;;;;;;15.57;11.63;;;13.70;99.90;;;;;;5000642;28;20068;-85
2022/05/02 09:25:29;;;;;;;17.70;12.10;;;13.70;99.90;;;;;;5004536;28;20052;-85
2022/05/02 09:28:22;;;;;;;15.82;13.13;;;14.00;99.90;;;;;;5016064;28;20073;-84
2022/05/02 09:31:01;;;;;;;15.20;10.45;;;14.20;99.90;;;;;;5021837;28;20041;-84
2022/05/02 09:33:46;;;;;;;14.82;11.68;;;14.60;99.90;;;;;;5001771;28;20064;-85
2022/05/02 09:36:29;;;;;;;15.23;13.53;;;14.50;99.90;;;;;;5001572;28;20056;-84
2022/05/02 09:39:24;;;;;;;16.17;11.43;;;14.40;99.90;;;;;;5014304;28;20727;-84
2022/05/02 09:42:09;;;;;;;14.20;8.73;;;14.20;99.90;;;;;;4993005;28;20696;-85
2022/05/02 09:51:51;;;;;;;12.10;10.85;;;15.30;99.90;;;;;;4970527;28;20084;-84
2022/05/02 09:57:55;;;;;;;13.00;8.75;;;14.50;99.90;;;;;;4998147;28;20759;-85
2022/05/02 10:03:28;;;;;;;11.27;10.18;;;14.00;99.90;;;;;;5013243;28;20049;-87
2022/05/02 10:06:07;;;;;;;11.52;10.32;;;14.10;99.90;;;;;;5019497;28;20053;-85
2022/05/02 10:08:42;;;;;;;11.73;9.35;;;14.40;99.90;;;;;;5025245;28;21147;-86
2022/05/02 10:11:25;;;;;;;14.85;10.18;;;14.50;99.90;;;;;;4994262;28;20056;-88
2022/05/02 10:14:11;;;;;;;11.13;9.35;;;14.70;99.90;;;;;;5004159;28;20049;-86
2022/05/02 10:16:55;;;;;;;11.65;9.75;;;14.80;99.90;;;;;;5021586;28;20044;-86
2022/05/02 10:19:35;;;;;;;13.35;11.98;;;14.80;99.90;;;;;;5016805;28;20377;-87
2022/05/02 10:22:24;;;;;;;14.02;10.68;;;14.70;99.90;;;;;;5007253;28;20042;-87
2022/05/02 10:25:07;;;;;;;12.93;11.05;;;14.60;99.90;;;;;;5001514;28;20046;-85
2022/05/02 10:27:52;;;;;;;14.13;11.07;;;14.40;99.90;;;;;;5016517;28;20065;-86
2022/05/02 10:30:20;;;;;;;12.30;9.63;;;14.50;99.90;;;;;;5002412;28;20072;-86
2022/05/02 10:32:55;;;;;;;11.57;10.20;;;14.70;99.90;;;;;;5002356;28;20185;-85
2022/05/02 10:35:26;;;;;;;17.48;12.50;;;14.70;99.90;;;;;;5004812;28;20045;-87
2022/05/02 10:38:03;;;;;;;10.68;9.05;;;14.70;99.90;;;;;;5019846;28;20037;-87
2022/05/02 10:40:45;;;;;;;14.10;12.38;;;14.70;99.90;;;;;;5016831;28;20049;-87
2022/05/02 10:43:25;;;;;;;11.70;10.52;;;14.70;99.90;;;;;;5000820;28;20038;-87
2022/05/02 10:45:54;;;;;;;11.80;9.83;;;14.70;99.90;;;;;;5017282;28;20045;-87
2022/05/02 10:48:37;;;;;;;11.13;9.73;;;14.70;99.90;;;;;;5001731;28;20046;-83
2022/05/02 10:51:13;;;;;;;18.50;10.00;;;14.60;99.90;;;;;;4983900;28;20048;-85
2022/05/02 10:53:47;;;;;;;13.25;11.20;;;14.40;99.90;;;;;;5024667;28;20041;-85
2022/05/02 10:56:22;;;;;;;13.98;11.45;;;14.20;99.90;;;;;;5023103;28;20386;-86
2022/05/02 10:58:54;;;;;;;10.82;9.68;;;14.30;99.90;;;;;;5018596;28;20056;-86
2022/05/02 11:01:52;;;;;;;11.00;9.90;;;14.40;99.90;;;;;;5019095;28;20515;-85
2022/05/02 11:04:48;;;;;;;13.57;11.45;;;14.60;99.90;;;;;;4972389;28;20409;-86
2022/05/02 11:07:47;;;;;;;12.45;10.98;;;14.60;99.90;;;;;;5003132;28;20060;-87
2022/05/02 11:10:18;;;;;;;11.07;9.90;;;14.60;99.90;;;;;;5003981;28;20041;-87
2022/05/02 11:13:09;;;;;;;14.05;12.32;;;14.80;99.90;;;;;;5001085;28;20062;-87
2022/05/02 11:16:08;;;;;;;13.48;12.10;;;15.00;99.90;;;;;;5000135;28;20049;-86
2022/05/02 11:22:01;;;;;;;10.35;9.27;;;14.80;99.90;;;;;;5016641;28;20041;-87
2022/05/02 11:24:42;;;;;;;11.43;8.77;;;14.60;99.90;;;;;;5018152;28;20037;-86
2022/05/02 11:27:36;;;;;;;11.98;10.07;;;14.70;99.90;;;;;;5016982;28;20515;-87
2022/05/02 11:30:12;;;;;;;10.13;9.13;;;14.60;99.90;;;;;;5002159;28;20060;-87
2022/05/02 11:33:16;;;;;;;11.77;10.60;;;14.70;99.90;;;;;;4985174;28;20050;-89
2022/05/02 11:36:16;;;;;;;11.50;9.68;;;14.70;99.90;;;;;;5023452;28;20034;-86
2022/05/02 11:40:04;;;;;;;11.00;8.25;;;14.60;99.90;;;;;;5020329;28;20042;-86
2022/05/02 11:43:13;;;;;;;12.90;9.63;;;14.50;99.90;;;;;;4994066;28;20042;-86
2022/05/02 11:46:24;;;;;;;12.55;8.45;;;14.40;99.90;;;;;;5018325;28;20038;-85
2022/05/02 11:49:43;;;;;;;10.35;9.25;;;14.30;99.90;;;;;;5032534;28;20711;-86
2022/05/02 11:52:32;;;;;;;10.27;9.20;;;14.20;99.90;;;;;;5008306;28;20046;-84
2022/05/02 11:55:06;;;;;;;9.75;8.07;;;14.20;99.90;;;;;;5019216;28;20042;-85
2022/05/02 11:57:39;;;;;;;10.80;8.10;;;14.20;99.90;;;;;;5001648;28;20041;-84
2022/05/02 12:00:15;;;;;;;11.23;10.02;;;14.30;99.90;;;;;;5003791;28;20057;-83
2022/05/02 12:02:56;;;;;;;11.23;9.95;;;14.50;99.90;;;;;;5018118;28;20046;-83
2022/05/02 12:05:25;;;;;;;11.10;9.52;;;14.70;99.90;;;;;;5005038;28;20050;-86
2022/05/02 12:08:02;;;;;;;11.05;9.48;;;14.90;99.90;;;;;;4998659;28;20045;-86
2022/05/02 12:10:42;;;;;;;14.27;10.02;;;15.10;99.90;;;;;;5001456;28;20045;-86
2022/05/02 12:13:15;;;;;;;9.80;8.73;;;15.40;99.90;;;;;;5009273;28;20046;-85
2022/05/02 12:16:05;;;;;;;12.73;10.02;;;15.60;99.90;;;;;;5004189;28;20044;-88
2022/05/02 12:18:53;;;;;;;11.77;9.50;;;15.90;99.90;;;;;;4976581;28;20041;-86
2022/05/02 12:21:41;;;;;;;12.73;10.20;;;16.00;99.90;;;;;;4962355;28;20058;-86
2022/05/02 12:24:13;;;;;;;12.57;9.77;;;16.10;99.90;;;;;;4966309;28;20077;-88
2022/05/02 12:26:46;;;;;;;12.70;10.68;;;16.00;99.90;;;;;;4964811;28;20038;-83
2022/05/02 12:29:17;;;;;;;17.00;11.10;;;15.60;99.90;;;;;;4980409;28;20049;-84
2022/05/02 12:32:11;;;;;;;;;;;15.30;99.90;;;;;;4999600;28;20057;-84
2022/05/02 12:34:41;;;;;;;10.95;9.63;;;15.40;99.90;;;;;;4995844;28;19925;-84
2022/05/02 12:37:23;;;;;;;10.55;8.85;;;15.40;99.90;;;;;;4993910;28;20057;-84
2022/05/02 12:40:03;;;;;;;9.48;8.70;;;15.40;99.90;;;;;;4998638;28;20054;-84
2022/05/02 12:42:50;;;;;;;12.70;9.45;;;15.90;99.90;;;;;;4998189;28;20043;-83
2022/05/02 12:45:23;;;;;;;11.13;9.88;;;16.10;99.90;;;;;;4998077;28;20056;-84
2022/05/02 12:47:56;;;;;;;10.45;8.30;;;15.90;99.90;;;;;;4996522;28;20049;-83
2022/05/02 12:50:28;;;;;;;11.95;9.77;;;16.10;99.90;;;;;;4997505;28;20046;-83
2022/05/02 12:53:01;;;;;;;11.10;9.85;;;15.90;99.90;;;;;;4997942;28;20072;-83
2022/05/02 12:55:31;;;;;;;12.25;10.82;;;15.80;99.90;;;;;;4999822;28;20425;-85
2022/05/02 13:00:53;;;;;;;15.15;12.15;;;15.60;99.90;;;;;;4997902;28;20092;-88
2022/05/02 13:03:27;;;;;;;10.35;8.73;;;15.50;99.90;;;;;;4956113;28;20445;-89
2022/05/02 13:06:08;;;;;;;10.20;9.15;;;15.30;99.90;;;;;;4947889;28;20057;-86
2022/05/02 13:08:43;;;;;;;11.55;8.45;;;15.60;99.90;;;;;;4978609;28;20070;-88
2022/05/02 13:11:13;;;;;;;10.90;8.63;;;15.70;99.90;;;;;;4977837;28;20892;-86
2022/05/02 13:13:46;;;;;;;10.25;9.23;;;15.50;99.90;;;;;;4961963;28;20042;-86
2022/05/02 13:16:30;;;;;;;9.57;8.15;;;15.50;99.90;;;;;;4963077;28;20073;-88
2022/05/02 13:19:06;;;;;;;8.07;7.10;;;15.60;99.90;;;;;;4979309;28;20046;-89
2022/05/02 13:21:38;;;;;;;9.57;8.07;;;15.60;99.90;;;;;;5000335;28;20500;-89
2022/05/02 13:24:13;;;;;;;;;;;15.80;99.90;;;;;;5014417;28;20045;-87
2022/05/02 13:27:02;;;;;;;10.63;8.32;;;15.90;99.90;;;;;;5010164;28;19921;-85
2022/05/02 13:29:53;;;;;;;10.98;9.20;;;16.20;99.90;;;;;;4997156;28;20049;-87
2022/05/02 13:32:27;;;;;;;8.98;8.10;;;16.40;99.90;;;;;;5013494;28;20054;-88
2022/05/02 13:35:11;;;;;;;10.70;9.25;;;16.30;99.90;;;;;;4983396;28;20052;-86
2022/05/02 13:37:44;;;;;;;9.63;7.20;;;16.40;99.90;;;;;;4980524;28;20060;-87
2022/05/02 13:40:14;;;;;;;6.05;5.47;;;16.30;99.90;;;;;;5003598;28;20061;-86
2022/05/02 13:42:53;;;;;;;7.20;6.32;;;16.50;99.90;;;;;;5001727;28;20049;-88
2022/05/02 13:45:50;;;;;;;8.02;7.32;;;17.00;99.90;;;;;;5036451;28;20408;-88
2022/05/02 13:48:48;;;;;;;;;;;17.40;99.90;;;;;;4984258;28;20053;-86
2022/05/02 13:51:39;;;;;;;6.88;5.20;;;17.50;99.90;;;;;;5006584;28;19937;-85
2022/05/02 13:54:16;;;;;;;5.60;4.38;;;17.50;99.90;;;;;;5019569;28;20050;-87
2022/05/02 13:57:07;;;;;;;6.78;6.07;;;17.30;99.90;;;;;;5018877;28;20068;-88
2022/05/02 14:03:17;;;;;;;5.50;5.00;;;17.40;99.90;;;;;;5002489;28;20048;-85
2022/05/02 14:08:39;;;;;;;5.72;5.25;;;17.70;99.90;;;;;;5023724;28;20061;-87
2022/05/02 14:11:18;;;;;;;4.65;4.03;;;17.80;99.90;;;;;;5022813;28;20065;-86